createdAt,value
2023-01-09T06:02:45.862Z,97110.31
2023-01-09T06:05:13.146Z,97097.78
2023-01-09T06:07:41.998Z,97097.13
2023-01-09T06:10:11.552Z,97101.00
2023-01-09T06:12:38.213Z,97108.22
2023-01-09T06:15:06.901Z,97113.91
2023-01-09T06:17:35.203Z,97119.19
2023-01-09T06:20:01.797Z,97128.09
2023-01-09T06:22:28.310Z,97137.53
2023-01-09T06:24:54.772Z,97134.34
2023-01-09T06:27:21.231Z,97127.78
2023-01-09T06:29:47.731Z,97135.03
2023-01-09T06:32:14.237Z,97155.16
2023-01-09T06:34:40.726Z,97159.75
2023-01-09T06:37:07.287Z,97154.59
2023-01-09T06:39:33.789Z,97183.19
2023-01-09T06:42:00.282Z,97189.56
2023-01-09T06:44:26.789Z,97182.19
2023-01-09T06:46:53.320Z,97195.78
2023-01-09T06:49:23.480Z,97207.59
2023-01-09T06:51:51.085Z,97199.94
2023-01-09T06:54:18.337Z,97208.69
2023-01-09T06:56:44.898Z,97217.84
2023-01-09T06:59:12.199Z,97225.22
2023-01-09T07:01:42.065Z,97236.75
2023-01-09T07:04:12.326Z,97241.03
2023-01-09T07:06:39.236Z,97238.94
2023-01-09T07:09:08.622Z,97239.66
2023-01-09T07:11:35.079Z,97245.59
2023-01-09T07:14:01.534Z,97235.19
2023-01-09T07:16:28.029Z,97252.72
2023-01-09T07:18:54.870Z,97255.19
2023-01-09T07:21:21.581Z,97277.63
2023-01-09T07:23:48.232Z,97272.09
2023-01-09T07:26:14.776Z,97273.19
2023-01-09T07:28:41.248Z,97290.88
2023-01-09T07:31:08.122Z,97282.56
2023-01-09T07:33:35.319Z,97282.56
2023-01-09T07:36:01.782Z,97290.47
2023-01-09T07:38:28.299Z,97286.59
2023-01-09T07:40:54.772Z,97288.97
2023-01-09T07:43:21.241Z,97291.28
2023-01-09T07:45:47.735Z,97322.19
2023-01-09T07:48:14.269Z,97321.03
2023-01-09T07:50:40.826Z,97345.94
2023-01-09T07:53:07.283Z,97361.00
2023-01-09T07:55:33.749Z,97361.97
2023-01-09T07:58:00.223Z,97346.50
2023-01-09T08:00:26.692Z,97374.88
2023-01-09T08:02:54.102Z,97377.31
2023-01-09T08:05:21.029Z,97396.44
2023-01-09T08:07:47.974Z,97392.09
2023-01-09T08:10:19.470Z,97386.22
2023-01-09T08:12:47.236Z,97411.75
2023-01-09T08:15:14.480Z,97424.94
2023-01-09T08:17:43.275Z,97405.63
2023-01-09T08:20:14.928Z,97417.72
2023-01-09T08:22:42.338Z,97439.47
2023-01-09T08:25:12.261Z,97434.81
2023-01-09T08:27:39.344Z,97455.28
2023-01-09T08:30:06.431Z,97453.91
2023-01-09T08:32:32.983Z,97473.75
2023-01-09T08:34:59.467Z,97466.22
2023-01-09T08:37:26.004Z,97464.53
2023-01-09T08:39:53.226Z,97461.97
2023-01-09T08:42:38.755Z,97477.59
2023-01-09T08:45:24.571Z,97472.84
2023-01-09T08:47:51.129Z,97485.31
2023-01-09T08:50:26.301Z,97486.22
2023-01-09T08:52:52.847Z,97488.97
2023-01-09T08:55:19.331Z,97508.56
2023-01-09T08:57:50.397Z,97517.28
2023-01-09T09:00:18.448Z,97522.63
2023-01-09T09:02:45.068Z,97517.59
2023-01-09T09:05:11.652Z,97504.50
2023-01-09T09:07:38.104Z,97522.22
2023-01-09T09:10:04.959Z,97515.81
2023-01-09T09:12:31.435Z,97528.78
2023-01-09T09:15:13.208Z,97538.13
2023-01-09T09:17:40.432Z,97538.97
2023-01-09T09:20:08.816Z,97553.75
2023-01-09T09:22:35.866Z,97548.28
2023-01-09T09:25:04.605Z,97555.38
2023-01-09T09:27:31.986Z,97557.06
2023-01-09T09:29:58.535Z,97574.53
2023-01-09T09:32:25.094Z,97553.97
2023-01-09T09:34:51.624Z,97565.03
2023-01-09T09:37:18.198Z,97551.34
2023-01-09T09:39:47.492Z,97557.78
2023-01-09T09:42:32.588Z,97554.56
2023-01-09T09:45:43.079Z,97561.94
2023-01-09T09:48:28.507Z,97553.50
2023-01-09T09:51:04.739Z,97533.16
2023-01-09T09:53:34.016Z,97571.38
2023-01-09T09:56:02.567Z,97549.41
2023-01-09T09:58:38.376Z,97558.59
2023-01-09T10:01:06.334Z,97563.16
2023-01-09T10:03:39.735Z,97557.13
2023-01-09T10:06:13.420Z,97566.59
2023-01-09T10:08:52.342Z,97556.41
2023-01-09T10:11:35.014Z,97558.97
2023-01-09T10:14:08.211Z,97561.50
2023-01-09T10:17:19.007Z,97561.44
2023-01-09T10:19:57.736Z,97564.53
2023-01-09T10:22:41.229Z,97552.66
2023-01-09T10:25:45.027Z,97567.41
2023-01-09T10:28:36.221Z,97571.44
2023-01-09T10:31:12.147Z,97571.91
2023-01-09T10:34:19.358Z,97578.34
2023-01-09T10:36:59.126Z,97571.09
2023-01-09T10:39:43.358Z,97566.41
2023-01-09T10:42:18.782Z,97574.56
2023-01-09T10:44:59.548Z,97570.16
2023-01-09T10:47:32.179Z,97567.94
2023-01-09T10:49:59.571Z,97568.69
2023-01-09T10:52:35.144Z,97564.28
2023-01-09T10:55:13.227Z,97561.91
2023-01-09T10:57:50.591Z,97563.94
2023-01-09T11:00:23.050Z,97561.06
2023-01-09T11:02:51.425Z,97559.56
2023-01-09T11:05:24.487Z,97553.19
2023-01-09T11:07:59.493Z,97561.69
2023-01-09T11:10:49.455Z,97565.63
2023-01-09T11:13:18.749Z,97565.13
2023-01-09T11:15:45.495Z,97553.47
2023-01-09T11:18:26.197Z,97556.50
2023-01-09T11:20:53.346Z,97570.34
2023-01-09T11:23:31.625Z,97567.47
2023-01-09T11:26:00.778Z,97574.34
2023-01-09T11:28:28.203Z,97567.31
2023-01-09T11:31:04.000Z,97561.38
2023-01-09T11:33:35.158Z,97562.00
2023-01-09T11:36:15.293Z,97570.53
2023-01-09T11:38:48.487Z,97559.03
2023-01-09T11:41:22.308Z,97566.19
2023-01-09T11:43:51.873Z,97552.44
2023-01-09T11:46:30.712Z,97555.59
2023-01-09T11:48:58.560Z,97562.00
2023-01-09T11:51:28.450Z,97557.91
2023-01-09T11:54:06.255Z,97557.50
2023-01-09T11:56:32.949Z,97559.88
2023-01-09T11:59:00.131Z,97566.75
2023-01-09T12:01:47.852Z,97555.22
2023-01-09T12:04:30.135Z,97538.25
2023-01-09T12:07:17.224Z,97543.03
2023-01-09T12:09:59.013Z,97544.31
2023-01-09T12:12:29.277Z,97550.63
2023-01-09T12:15:24.448Z,97549.69
2023-01-09T12:17:57.763Z,97543.44
2023-01-09T12:20:33.665Z,97517.25
2023-01-09T12:23:20.287Z,97529.63
2023-01-09T12:25:52.743Z,97544.03
2023-01-09T12:28:22.291Z,97539.25
2023-01-09T12:31:04.123Z,97543.91
2023-01-09T12:33:36.653Z,97556.97
2023-01-09T12:36:21.605Z,97538.84
2023-01-09T12:39:06.431Z,97538.63
2023-01-09T12:41:53.324Z,97533.78
2023-01-09T12:44:47.744Z,97548.88
2023-01-09T12:47:24.243Z,97551.19
2023-01-09T12:50:02.460Z,97557.66
2023-01-09T12:52:34.771Z,97564.88
2023-01-09T12:55:23.962Z,97564.09
2023-01-09T12:57:54.795Z,97565.19
2023-01-09T13:00:37.516Z,97550.91
2023-01-09T13:03:17.521Z,97559.88
2023-01-09T13:05:53.224Z,97549.41
2023-01-09T13:08:19.671Z,97544.09
2023-01-09T13:10:51.807Z,97551.19
2023-01-09T13:13:55.298Z,97549.56
2023-01-09T13:16:32.144Z,97535.22
2023-01-09T13:19:17.076Z,97544.06
2023-01-09T13:21:44.055Z,97537.59
2023-01-09T13:24:29.038Z,97540.16
2023-01-09T13:27:13.097Z,97539.78
2023-01-09T13:29:50.805Z,97546.28
2023-01-09T13:32:41.428Z,97548.09
2023-01-09T13:35:14.543Z,97549.66
2023-01-09T13:37:41.409Z,97555.16
2023-01-09T13:40:20.051Z,97554.94
2023-01-09T13:42:57.936Z,97550.41
2023-01-09T13:45:27.337Z,97542.53
2023-01-09T13:48:14.451Z,97558.53
2023-01-09T13:50:42.107Z,97555.06
2023-01-09T13:53:17.519Z,97553.75
2023-01-09T13:55:59.519Z,97560.50
2023-01-09T13:58:55.472Z,97561.91
2023-01-09T14:01:25.133Z,97564.09
2023-01-09T14:04:24.383Z,97556.75
2023-01-09T14:07:21.954Z,97548.25
2023-01-09T14:10:00.401Z,97524.16
2023-01-09T14:12:29.780Z,97516.31
2023-01-09T14:15:02.190Z,97520.56
2023-01-09T14:17:37.592Z,97511.16
2023-01-09T14:20:07.166Z,97519.88
2023-01-09T14:22:45.600Z,97525.56
2023-01-09T14:25:26.073Z,97519.63
2023-01-09T14:27:55.542Z,97519.38
2023-01-09T14:30:35.390Z,97541.47
2023-01-09T14:33:27.536Z,97539.88
2023-01-09T14:36:12.644Z,97550.47
2023-01-09T14:38:54.157Z,97547.13
2023-01-09T14:41:51.703Z,97551.47
2023-01-09T14:44:29.560Z,97543.53
2023-01-09T14:47:01.771Z,97542.63
2023-01-09T14:49:37.302Z,97534.13
2023-01-09T14:52:15.517Z,97537.59
2023-01-09T14:54:43.637Z,97539.63
2023-01-09T14:57:34.143Z,97538.53
2023-01-09T15:00:20.666Z,97541.50
2023-01-09T15:02:48.562Z,97553.63
2023-01-09T15:05:19.836Z,97566.66
2023-01-09T15:08:00.195Z,97564.97
2023-01-09T15:10:31.344Z,97565.94
2023-01-09T15:13:00.908Z,97554.97
2023-01-09T15:15:28.606Z,97570.00
2023-01-09T15:17:59.043Z,97578.00
2023-01-09T15:20:29.891Z,97573.16
2023-01-09T15:22:57.810Z,97553.03
2023-01-09T15:25:40.401Z,97564.41
2023-01-09T15:28:28.249Z,97565.28
2023-01-09T15:31:09.664Z,97570.44
2023-01-09T15:33:39.380Z,97573.41
2023-01-09T15:36:15.639Z,97582.44
2023-01-09T15:38:43.703Z,97586.50
2023-01-09T15:41:35.277Z,97593.22
2023-01-09T15:44:04.079Z,97601.38
2023-01-09T15:46:30.964Z,97595.75
2023-01-09T15:48:57.797Z,97607.47
2023-01-09T15:51:25.181Z,97622.66
2023-01-09T15:53:51.816Z,97630.81
2023-01-09T15:56:24.171Z,97632.50
2023-01-09T15:58:54.823Z,97640.44
2023-01-09T16:01:29.786Z,97642.34
2023-01-09T16:04:12.422Z,97641.00
2023-01-09T16:06:48.011Z,97645.09
2023-01-09T16:09:22.720Z,97654.31
2023-01-09T16:11:53.064Z,97654.47
2023-01-09T16:14:38.486Z,97669.78
2023-01-09T16:17:11.760Z,97679.38
2023-01-09T16:19:41.207Z,97676.38
2023-01-09T16:22:30.978Z,97667.25
2023-01-09T16:25:02.845Z,97686.78
2023-01-09T16:27:33.813Z,97686.78
2023-01-09T16:30:29.729Z,97681.28
2023-01-09T16:32:56.576Z,97680.56
2023-01-09T16:35:27.287Z,97685.13
2023-01-09T16:37:53.916Z,97697.94
2023-01-09T16:40:26.453Z,97686.94
2023-01-09T16:43:03.338Z,97684.25
2023-01-09T16:45:38.681Z,97672.28
2023-01-09T16:48:11.394Z,97687.50
2023-01-09T16:50:37.959Z,97660.78
2023-01-09T16:53:22.063Z,97673.25
2023-01-09T16:55:49.363Z,97675.03
2023-01-09T16:58:22.367Z,97675.78
2023-01-09T17:00:49.078Z,97676.72
2023-01-09T17:03:16.340Z,97677.69
2023-01-09T17:05:43.235Z,97682.44
2023-01-09T17:08:32.221Z,97693.72
2023-01-09T17:10:58.896Z,97701.00
2023-01-09T17:13:26.421Z,97707.97
2023-01-09T17:15:54.815Z,97704.75
2023-01-09T17:18:23.398Z,97682.41
2023-01-09T17:20:52.974Z,97715.03
2023-01-09T17:23:22.249Z,97720.69
2023-01-09T17:26:09.667Z,97705.72
2023-01-09T17:28:36.920Z,97721.31
2023-01-09T17:31:06.665Z,97720.94
2023-01-09T17:33:33.662Z,97718.84
2023-01-09T17:36:02.900Z,97729.97
2023-01-09T17:38:29.611Z,97727.31
2023-01-09T17:40:56.210Z,97721.63
2023-01-09T17:43:22.944Z,97724.13
2023-01-09T17:45:49.519Z,97720.19
2023-01-09T17:48:19.409Z,97718.25
2023-01-09T17:50:46.851Z,97706.97
2023-01-09T17:53:13.950Z,97721.06
2023-01-09T17:55:41.647Z,97720.00
2023-01-09T17:58:23.530Z,97717.28
2023-01-09T18:00:50.040Z,97724.00
2023-01-09T18:03:16.597Z,97722.88
2023-01-09T18:06:02.846Z,97739.06
2023-01-09T18:08:49.720Z,97729.38
2023-01-09T18:11:36.712Z,97720.00
2023-01-09T18:14:23.623Z,97748.88
2023-01-09T18:17:12.207Z,97749.16
2023-01-09T18:19:59.031Z,97764.44
2023-01-09T18:22:45.899Z,97767.13
2023-01-09T18:25:32.773Z,97761.16
2023-01-09T18:28:19.659Z,97781.66
2023-01-09T18:31:06.477Z,97783.09
2023-01-09T18:33:56.325Z,97795.44
2023-01-09T18:36:43.195Z,97798.09
2023-01-09T18:39:30.157Z,97796.84
2023-01-09T18:42:17.020Z,97831.09
2023-01-09T18:45:04.272Z,97830.44
2023-01-09T18:47:51.177Z,97826.84
2023-01-09T18:50:38.007Z,97817.59
2023-01-09T18:53:24.828Z,97829.28
2023-01-09T18:56:11.689Z,97823.97
2023-01-09T18:58:58.639Z,97819.00
2023-01-09T19:01:45.541Z,97829.09
2023-01-09T19:04:32.318Z,97835.50
2023-01-09T19:07:19.295Z,97852.94
2023-01-09T19:10:06.840Z,97850.06
2023-01-09T19:12:53.689Z,97870.44
2023-01-09T19:15:40.538Z,97869.78
2023-01-09T19:18:28.304Z,97873.31
2023-01-09T19:21:20.605Z,97873.38
2023-01-09T19:24:07.525Z,97875.59
2023-01-09T19:26:54.391Z,97890.28
2023-01-09T19:29:41.250Z,97880.22
2023-01-09T19:32:28.069Z,97881.69
2023-01-09T19:35:15.123Z,97884.91
2023-01-09T19:38:01.955Z,97891.72
2023-01-09T19:40:49.064Z,97901.72
2023-01-09T19:43:36.561Z,97894.97
2023-01-09T19:46:25.301Z,97909.69
2023-01-09T19:49:12.136Z,97914.97
2023-01-09T19:52:00.558Z,97916.84
2023-01-09T19:54:47.871Z,97911.47
2023-01-09T19:57:34.698Z,97920.75
2023-01-09T20:00:21.659Z,97933.13
2023-01-09T20:03:08.509Z,97927.69
2023-01-09T20:05:55.347Z,97933.34
2023-01-09T20:08:53.662Z,97945.38
2023-01-09T20:11:41.503Z,97949.34
2023-01-09T20:14:28.332Z,97945.97
2023-01-09T20:17:15.229Z,97939.47
2023-01-09T20:20:02.087Z,97952.91
2023-01-09T20:22:48.902Z,97947.47
2023-01-09T20:25:35.740Z,97959.03
2023-01-09T20:28:23.044Z,97956.00
2023-01-09T20:31:12.562Z,97954.44
